sensor_id;sensor_type;location;lat;lon;timestamp;temperature;humidity
324;DHT22;149;51.094;17.002;2022-09-03T00:02:22;14.70;99.90
324;DHT22;149;51.094;17.002;2022-09-03T00:05:10;14.60;99.90
324;DHT22;149;51.094;17.002;2022-09-03T00:08:10;14.50;99.90
324;DHT22;149;51.094;17.002;2022-09-03T00:13:49;14.50;99.90
324;DHT22;149;51.094;17.002;2022-09-03T00:16:19;14.50;99.90
324;DHT22;149;51.094;17.002;2022-09-03T00:18:56;14.40;99.90
324;DHT22;149;51.094;17.002;2022-09-03T00:21:44;14.30;99.90
324;DHT22;149;51.094;17.002;2022-09-03T00:24:18;14.20;99.90
324;DHT22;149;51.094;17.002;2022-09-03T00:26:58;14.10;99.90
324;DHT22;149;51.094;17.002;2022-09-03T00:29:44;14.00;99.90
324;DHT22;149;51.094;17.002;2022-09-03T00:32:26;13.90;99.90
324;DHT22;149;51.094;17.002;2022-09-03T00:35:08;13.90;99.90
324;DHT22;149;51.094;17.002;2022-09-03T00:37:45;14.00;99.90
324;DHT22;149;51.094;17.002;2022-09-03T00:46:41;13.80;99.90
324;DHT22;149;51.094;17.002;2022-09-03T00:49:45;13.80;99.90
324;DHT22;149;51.094;17.002;2022-09-03T00:52:37;13.70;99.90
324;DHT22;149;51.094;17.002;2022-09-03T00:58:36;13.70;99.90
324;DHT22;149;51.094;17.002;2022-09-03T01:01:14;13.60;99.90
324;DHT22;149;51.094;17.002;2022-09-03T01:04:07;13.50;99.90
324;DHT22;149;51.094;17.002;2022-09-03T01:09:54;13.60;99.90
324;DHT22;149;51.094;17.002;2022-09-03T01:12:33;13.50;99.90
324;DHT22;149;51.094;17.002;2022-09-03T01:15:34;13.40;99.90
324;DHT22;149;51.094;17.002;2022-09-03T01:26:21;13.20;99.90
324;DHT22;149;51.094;17.002;2022-09-03T01:28:59;13.30;99.90
324;DHT22;149;51.094;17.002;2022-09-03T01:37:40;13.00;99.90
324;DHT22;149;51.094;17.002;2022-09-03T01:40:17;12.90;99.90
324;DHT22;149;51.094;17.002;2022-09-03T01:46:03;12.90;99.90
324;DHT22;149;51.094;17.002;2022-09-03T01:48:47;12.90;99.90
324;DHT22;149;51.094;17.002;2022-09-03T01:51:23;12.80;99.90
324;DHT22;149;51.094;17.002;2022-09-03T01:59:22;12.60;99.90
324;DHT22;149;51.094;17.002;2022-09-03T02:02:06;12.50;99.90
324;DHT22;149;51.094;17.002;2022-09-03T02:04:35;12.40;99.90
324;DHT22;149;51.094;17.002;2022-09-03T02:07:03;12.60;99.90
324;DHT22;149;51.094;17.002;2022-09-03T02:09:31;12.40;99.90
324;DHT22;149;51.094;17.002;2022-09-03T02:12:13;12.30;99.90
324;DHT22;149;51.094;17.002;2022-09-03T02:14:42;12.40;99.90
324;DHT22;149;51.094;17.002;2022-09-03T02:17:12;12.30;99.90
324;DHT22;149;51.094;17.002;2022-09-03T02:19:39;12.20;99.90
324;DHT22;149;51.094;17.002;2022-09-03T02:22:06;12.20;99.90
324;DHT22;149;51.094;17.002;2022-09-03T02:24:33;12.30;99.90
324;DHT22;149;51.094;17.002;2022-09-03T02:27:00;12.30;99.90
324;DHT22;149;51.094;17.002;2022-09-03T02:29:27;12.20;99.90
324;DHT22;149;51.094;17.002;2022-09-03T02:31:55;12.10;99.90
324;DHT22;149;51.094;17.002;2022-09-03T02:34:23;12.10;99.90
324;DHT22;149;51.094;17.002;2022-09-03T02:36:53;12.00;99.90
324;DHT22;149;51.094;17.002;2022-09-03T02:39:22;12.20;99.90
324;DHT22;149;51.094;17.002;2022-09-03T02:41:54;12.10;99.90
324;DHT22;149;51.094;17.002;2022-09-03T02:44:34;12.30;99.90
324;DHT22;149;51.094;17.002;2022-09-03T02:47:06;12.20;99.90
324;DHT22;149;51.094;17.002;2022-09-03T02:49:34;12.00;99.90
324;DHT22;149;51.094;17.002;2022-09-03T02:52:07;11.90;99.90
324;DHT22;149;51.094;17.002;2022-09-03T02:54:38;11.80;99.90
324;DHT22;149;51.094;17.002;2022-09-03T02:57:08;11.80;99.90
324;DHT22;149;51.094;17.002;2022-09-03T02:59:36;11.80;99.90
324;DHT22;149;51.094;17.002;2022-09-03T03:02:04;11.80;99.90
324;DHT22;149;51.094;17.002;2022-09-03T03:04:32;11.90;99.90
324;DHT22;149;51.094;17.002;2022-09-03T03:06:59;11.80;99.90
324;DHT22;149;51.094;17.002;2022-09-03T03:09:26;11.70;99.90
324;DHT22;149;51.094;17.002;2022-09-03T03:11:53;11.60;99.90
324;DHT22;149;51.094;17.002;2022-09-03T03:14:21;11.60;99.90
324;DHT22;149;51.094;17.002;2022-09-03T03:16:49;11.60;99.90
324;DHT22;149;51.094;17.002;2022-09-03T03:19:17;11.60;99.90
324;DHT22;149;51.094;17.002;2022-09-03T03:21:44;11.60;99.90
324;DHT22;149;51.094;17.002;2022-09-03T03:24:11;11.60;99.90
324;DHT22;149;51.094;17.002;2022-09-03T03:26:38;11.50;99.90
324;DHT22;149;51.094;17.002;2022-09-03T03:29:07;11.50;99.90
324;DHT22;149;51.094;17.002;2022-09-03T03:31:39;11.40;99.90
324;DHT22;149;51.094;17.002;2022-09-03T03:34:06;11.30;99.90
324;DHT22;149;51.094;17.002;2022-09-03T03:36:34;11.30;99.90
324;DHT22;149;51.094;17.002;2022-09-03T03:39:02;11.30;99.90
324;DHT22;149;51.094;17.002;2022-09-03T03:41:32;11.30;99.90
324;DHT22;149;51.094;17.002;2022-09-03T03:44:02;11.20;99.90
324;DHT22;149;51.094;17.002;2022-09-03T03:46:35;11.20;99.90
324;DHT22;149;51.094;17.002;2022-09-03T03:49:03;11.20;99.90
324;DHT22;149;51.094;17.002;2022-09-03T03:51:33;11.10;99.90
324;DHT22;149;51.094;17.002;2022-09-03T03:54:00;11.10;99.90
324;DHT22;149;51.094;17.002;2022-09-03T03:56:31;11.10;99.90
324;DHT22;149;51.094;17.002;2022-09-03T03:58:58;11.10;99.90
324;DHT22;149;51.094;17.002;2022-09-03T04:01:27;11.10;99.90
324;DHT22;149;51.094;17.002;2022-09-03T04:03:55;11.00;99.90
324;DHT22;149;51.094;17.002;2022-09-03T04:06:24;11.10;99.90
324;DHT22;149;51.094;17.002;2022-09-03T04:08:51;11.00;99.90
324;DHT22;149;51.094;17.002;2022-09-03T04:11:22;10.90;99.90
324;DHT22;149;51.094;17.002;2022-09-03T04:13:50;11.00;99.90
324;DHT22;149;51.094;17.002;2022-09-03T04:16:19;11.20;99.90
324;DHT22;149;51.094;17.002;2022-09-03T04:18:47;10.90;99.90
324;DHT22;149;51.094;17.002;2022-09-03T04:21:18;11.00;99.90
324;DHT22;149;51.094;17.002;2022-09-03T04:23:46;11.00;99.90
324;DHT22;149;51.094;17.002;2022-09-03T04:26:17;11.00;99.90
324;DHT22;149;51.094;17.002;2022-09-03T04:28:45;10.90;99.90
324;DHT22;149;51.094;17.002;2022-09-03T04:31:14;10.80;99.90
324;DHT22;149;51.094;17.002;2022-09-03T04:33:41;11.00;99.90
324;DHT22;149;51.094;17.002;2022-09-03T04:36:23;10.90;99.90
324;DHT22;149;51.094;17.002;2022-09-03T04:38:52;10.90;99.90
324;DHT22;149;51.094;17.002;2022-09-03T04:41:22;11.00;99.90
324;DHT22;149;51.094;17.002;2022-09-03T04:43:55;11.10;99.90
324;DHT22;149;51.094;17.002;2022-09-03T04:46:24;11.00;99.90
324;DHT22;149;51.094;17.002;2022-09-03T04:48:53;11.10;99.90
324;DHT22;149;51.094;17.002;2022-09-03T04:51:24;11.30;99.90
324;DHT22;149;51.094;17.002;2022-09-03T04:53:57;11.20;99.90
324;DHT22;149;51.094;17.002;2022-09-03T04:56:32;11.30;99.90
324;DHT22;149;51.094;17.002;2022-09-03T04:59:02;11.20;99.90
324;DHT22;149;51.094;17.002;2022-09-03T05:01:31;11.20;99.90
324;DHT22;149;51.094;17.002;2022-09-03T05:03:58;11.40;99.90
324;DHT22;149;51.094;17.002;2022-09-03T05:06:27;11.40;99.90
324;DHT22;149;51.094;17.002;2022-09-03T05:08:55;11.50;99.90
324;DHT22;149;51.094;17.002;2022-09-03T05:11:23;11.70;99.90
324;DHT22;149;51.094;17.002;2022-09-03T05:13:52;11.80;99.90
324;DHT22;149;51.094;17.002;2022-09-03T05:16:21;11.90;99.90
324;DHT22;149;51.094;17.002;2022-09-03T05:18:53;12.10;99.90
324;DHT22;149;51.094;17.002;2022-09-03T05:21:21;12.20;99.90
324;DHT22;149;51.094;17.002;2022-09-03T05:23:50;12.30;99.90
324;DHT22;149;51.094;17.002;2022-09-03T05:26:24;12.50;99.90
324;DHT22;149;51.094;17.002;2022-09-03T05:28:59;12.50;99.90
324;DHT22;149;51.094;17.002;2022-09-03T05:31:28;12.50;99.90
324;DHT22;149;51.094;17.002;2022-09-03T05:34:00;12.60;99.90
324;DHT22;149;51.094;17.002;2022-09-03T05:36:32;12.80;99.90
324;DHT22;149;51.094;17.002;2022-09-03T05:39:00;12.80;99.90
324;DHT22;149;51.094;17.002;2022-09-03T05:41:28;12.80;99.90
324;DHT22;149;51.094;17.002;2022-09-03T05:43:56;12.90;99.90
324;DHT22;149;51.094;17.002;2022-09-03T05:46:27;13.20;99.90
324;DHT22;149;51.094;17.002;2022-09-03T05:49:03;13.20;99.90
324;DHT22;149;51.094;17.002;2022-09-03T05:51:31;13.10;99.90
324;DHT22;149;51.094;17.002;2022-09-03T05:53:58;12.80;99.90
324;DHT22;149;51.094;17.002;2022-09-03T05:56:29;12.80;99.90
324;DHT22;149;51.094;17.002;2022-09-03T05:58:59;13.00;99.90
324;DHT22;149;51.094;17.002;2022-09-03T06:01:33;13.30;99.90
324;DHT22;149;51.094;17.002;2022-09-03T06:06:31;13.10;99.90
324;DHT22;149;51.094;17.002;2022-09-03T06:09:01;13.20;99.90
324;DHT22;149;51.094;17.002;2022-09-03T06:11:30;13.40;99.90
324;DHT22;149;51.094;17.002;2022-09-03T06:14:00;13.60;99.90
324;DHT22;149;51.094;17.002;2022-09-03T06:16:28;13.70;99.90
324;DHT22;149;51.094;17.002;2022-09-03T06:18:58;14.00;99.90
324;DHT22;149;51.094;17.002;2022-09-03T06:21:26;14.20;99.90
324;DHT22;149;51.094;17.002;2022-09-03T06:23:55;14.30;99.90
324;DHT22;149;51.094;17.002;2022-09-03T06:26:26;14.50;99.90
324;DHT22;149;51.094;17.002;2022-09-03T06:28:56;14.60;99.90
324;DHT22;149;51.094;17.002;2022-09-03T06:31:26;14.30;99.90
324;DHT22;149;51.094;17.002;2022-09-03T06:33:53;14.30;99.90
324;DHT22;149;51.094;17.002;2022-09-03T06:36:22;14.50;99.90
324;DHT22;149;51.094;17.002;2022-09-03T06:39:05;14.80;99.90
324;DHT22;149;51.094;17.002;2022-09-03T06:41:33;15.70;99.90
324;DHT22;149;51.094;17.002;2022-09-03T06:44:07;16.30;99.90
324;DHT22;149;51.094;17.002;2022-09-03T06:46:40;17.00;99.90
324;DHT22;149;51.094;17.002;2022-09-03T06:49:11;17.30;99.90
324;DHT22;149;51.094;17.002;2022-09-03T06:51:39;18.00;99.90
324;DHT22;149;51.094;17.002;2022-09-03T06:54:08;18.90;99.90
324;DHT22;149;51.094;17.002;2022-09-03T06:56:37;19.50;99.90
324;DHT22;149;51.094;17.002;2022-09-03T06:59:08;19.70;99.90
324;DHT22;149;51.094;17.002;2022-09-03T07:01:35;20.00;99.90
324;DHT22;149;51.094;17.002;2022-09-03T07:04:11;21.20;99.90
324;DHT22;149;51.094;17.002;2022-09-03T07:06:39;22.20;99.90
324;DHT22;149;51.094;17.002;2022-09-03T07:09:10;23.50;99.90
324;DHT22;149;51.094;17.002;2022-09-03T07:11:40;23.30;99.90
324;DHT22;149;51.094;17.002;2022-09-03T07:14:18;24.10;99.90
324;DHT22;149;51.094;17.002;2022-09-03T07:16:47;24.50;99.90
324;DHT22;149;51.094;17.002;2022-09-03T07:19:14;23.90;99.90
324;DHT22;149;51.094;17.002;2022-09-03T07:21:44;23.20;99.90
324;DHT22;149;51.094;17.002;2022-09-03T07:24:17;22.00;99.90
324;DHT22;149;51.094;17.002;2022-09-03T07:26:45;21.60;99.90
324;DHT22;149;51.094;17.002;2022-09-03T07:29:14;22.70;99.90
324;DHT22;149;51.094;17.002;2022-09-03T07:31:49;24.10;99.90
324;DHT22;149;51.094;17.002;2022-09-03T07:34:20;23.30;99.90
324;DHT22;149;51.094;17.002;2022-09-03T07:36:52;22.90;99.90
324;DHT22;149;51.094;17.002;2022-09-03T07:39:20;22.40;99.90
324;DHT22;149;51.094;17.002;2022-09-03T07:41:47;23.30;99.90
324;DHT22;149;51.094;17.002;2022-09-03T07:44:15;23.60;99.90
324;DHT22;149;51.094;17.002;2022-09-03T07:46:46;23.70;99.90
324;DHT22;149;51.094;17.002;2022-09-03T07:49:15;23.40;99.90
324;DHT22;149;51.094;17.002;2022-09-03T07:51:42;23.00;99.90
324;DHT22;149;51.094;17.002;2022-09-03T07:54:12;24.50;99.90
324;DHT22;149;51.094;17.002;2022-09-03T07:56:39;26.60;99.20
324;DHT22;149;51.094;17.002;2022-09-03T07:59:09;27.00;96.90
324;DHT22;149;51.094;17.002;2022-09-03T08:01:46;27.00;95.80
324;DHT22;149;51.094;17.002;2022-09-03T08:04:13;26.00;96.90
324;DHT22;149;51.094;17.002;2022-09-03T08:06:40;25.60;98.00
324;DHT22;149;51.094;17.002;2022-09-03T08:09:11;25.20;98.60
324;DHT22;149;51.094;17.002;2022-09-03T08:11:41;26.50;97.20
324;DHT22;149;51.094;17.002;2022-09-03T08:14:12;27.40;94.90
324;DHT22;149;51.094;17.002;2022-09-03T08:16:48;26.50;95.60
324;DHT22;149;51.094;17.002;2022-09-03T08:19:16;25.70;97.50
324;DHT22;149;51.094;17.002;2022-09-03T08:21:46;25.20;98.00
324;DHT22;149;51.094;17.002;2022-09-03T08:24:15;24.40;99.50
324;DHT22;149;51.094;17.002;2022-09-03T08:26:43;24.80;99.30
324;DHT22;149;51.094;17.002;2022-09-03T08:29:17;25.00;99.40
324;DHT22;149;51.094;17.002;2022-09-03T08:31:44;25.90;98.60
324;DHT22;149;51.094;17.002;2022-09-03T08:34:12;27.50;96.10
324;DHT22;149;51.094;17.002;2022-09-03T08:36:40;26.70;96.50
324;DHT22;149;51.094;17.002;2022-09-03T08:39:09;26.50;96.40
324;DHT22;149;51.094;17.002;2022-09-03T08:44:27;26.20;96.40
324;DHT22;149;51.094;17.002;2022-09-03T08:52:44;28.80;92.60
324;DHT22;149;51.094;17.002;2022-09-03T08:58:06;27.60;92.70
324;DHT22;149;51.094;17.002;2022-09-03T09:09:29;26.50;94.00
324;DHT22;149;51.094;17.002;2022-09-03T09:20:58;26.00;94.40
324;DHT22;149;51.094;17.002;2022-09-03T09:23:31;25.30;95.70
324;DHT22;149;51.094;17.002;2022-09-03T09:26:05;24.80;97.00
324;DHT22;149;51.094;17.002;2022-09-03T09:28:35;24.00;97.80
324;DHT22;149;51.094;17.002;2022-09-03T09:31:09;22.80;99.90
324;DHT22;149;51.094;17.002;2022-09-03T09:33:38;22.50;99.90
324;DHT22;149;51.094;17.002;2022-09-03T09:36:11;22.70;99.90
324;DHT22;149;51.094;17.002;2022-09-03T09:38:42;22.40;99.90
324;DHT22;149;51.094;17.002;2022-09-03T09:41:17;22.20;99.90
324;DHT22;149;51.094;17.002;2022-09-03T09:43:46;21.70;99.90
324;DHT22;149;51.094;17.002;2022-09-03T09:46:22;21.30;99.90
324;DHT22;149;51.094;17.002;2022-09-03T09:48:56;21.20;99.90
324;DHT22;149;51.094;17.002;2022-09-03T09:51:25;21.40;99.90
324;DHT22;149;51.094;17.002;2022-09-03T09:57:05;21.20;99.90
324;DHT22;149;51.094;17.002;2022-09-03T09:59:34;21.70;99.90
324;DHT22;149;51.094;17.002;2022-09-03T10:02:10;22.10;99.90
324;DHT22;149;51.094;17.002;2022-09-03T10:04:47;22.20;99.90
324;DHT22;149;51.094;17.002;2022-09-03T10:07:23;21.70;99.90
324;DHT22;149;51.094;17.002;2022-09-03T10:10:16;21.70;99.90
324;DHT22;149;51.094;17.002;2022-09-03T10:15:31;21.20;99.90
324;DHT22;149;51.094;17.002;2022-09-03T10:21:10;21.40;99.90
324;DHT22;149;51.094;17.002;2022-09-03T10:26:35;21.50;99.90
324;DHT22;149;51.094;17.002;2022-09-03T10:29:05;21.20;99.90
324;DHT22;149;51.094;17.002;2022-09-03T10:34:40;21.30;99.90
324;DHT22;149;51.094;17.002;2022-09-03T10:40:13;21.60;99.90
324;DHT22;149;51.094;17.002;2022-09-03T10:45:54;21.60;99.90
324;DHT22;149;51.094;17.002;2022-09-03T11:08:11;22.20;99.90
324;DHT22;149;51.094;17.002;2022-09-03T11:10:51;22.00;99.90
324;DHT22;149;51.094;17.002;2022-09-03T11:14:06;21.30;99.90
324;DHT22;149;51.094;17.002;2022-09-03T11:16:38;21.40;99.90
324;DHT22;149;51.094;17.002;2022-09-03T11:19:09;21.60;99.90
324;DHT22;149;51.094;17.002;2022-09-03T11:21:38;21.80;99.90
324;DHT22;149;51.094;17.002;2022-09-03T11:26:47;21.80;99.90
324;DHT22;149;51.094;17.002;2022-09-03T11:29:47;21.30;99.90
324;DHT22;149;51.094;17.002;2022-09-03T11:32:21;21.00;99.90
324;DHT22;149;51.094;17.002;2022-09-03T11:34:52;20.90;99.90
324;DHT22;149;51.094;17.002;2022-09-03T11:37:22;21.10;99.90
324;DHT22;149;51.094;17.002;2022-09-03T11:42:37;21.10;99.90
324;DHT22;149;51.094;17.002;2022-09-03T11:47:57;22.30;99.90
324;DHT22;149;51.094;17.002;2022-09-03T11:50:32;22.50;99.90
324;DHT22;149;51.094;17.002;2022-09-03T11:53:08;22.40;99.90
324;DHT22;149;51.094;17.002;2022-09-03T11:55:57;22.10;99.90
324;DHT22;149;51.094;17.002;2022-09-03T11:58:37;22.00;99.90
324;DHT22;149;51.094;17.002;2022-09-03T12:01:12;22.00;99.90
324;DHT22;149;51.094;17.002;2022-09-03T12:04:03;21.70;99.90
324;DHT22;149;51.094;17.002;2022-09-03T12:14:33;21.30;99.90
324;DHT22;149;51.094;17.002;2022-09-03T12:19:56;20.90;99.90
324;DHT22;149;51.094;17.002;2022-09-03T12:22:27;20.80;99.90
324;DHT22;149;51.094;17.002;2022-09-03T12:24:55;20.90;99.90
324;DHT22;149;51.094;17.002;2022-09-03T12:27:24;21.10;99.90
324;DHT22;149;51.094;17.002;2022-09-03T12:29:57;21.20;99.90
324;DHT22;149;51.094;17.002;2022-09-03T12:32:34;21.10;99.90
324;DHT22;149;51.094;17.002;2022-09-03T12:37:37;21.10;99.90
324;DHT22;149;51.094;17.002;2022-09-03T12:40:28;21.20;99.90
324;DHT22;149;51.094;17.002;2022-09-03T12:43:14;21.40;99.90
324;DHT22;149;51.094;17.002;2022-09-03T12:46:01;21.40;99.90
324;DHT22;149;51.094;17.002;2022-09-03T12:48:36;21.40;99.90
324;DHT22;149;51.094;17.002;2022-09-03T12:51:08;21.30;99.90
324;DHT22;149;51.094;17.002;2022-09-03T12:53:56;21.70;99.90
324;DHT22;149;51.094;17.002;2022-09-03T12:56:24;22.10;99.90
324;DHT22;149;51.094;17.002;2022-09-03T12:58:57;22.10;99.90
324;DHT22;149;51.094;17.002;2022-09-03T13:01:31;22.10;99.90
324;DHT22;149;51.094;17.002;2022-09-03T13:04:08;22.30;99.90
324;DHT22;149;51.094;17.002;2022-09-03T13:06:47;22.40;99.90
324;DHT22;149;51.094;17.002;2022-09-03T13:09:23;22.40;99.90
324;DHT22;149;51.094;17.002;2022-09-03T13:11:56;22.20;99.90
324;DHT22;149;51.094;17.002;2022-09-03T13:14:26;22.30;99.90
324;DHT22;149;51.094;17.002;2022-09-03T13:17:29;22.30;99.90
324;DHT22;149;51.094;17.002;2022-09-03T13:20:08;22.10;99.90
324;DHT22;149;51.094;17.002;2022-09-03T13:33:44;22.30;99.90
324;DHT22;149;51.094;17.002;2022-09-03T13:36:23;22.20;99.90
324;DHT22;149;51.094;17.002;2022-09-03T13:38:58;21.90;99.90
324;DHT22;149;51.094;17.002;2022-09-03T13:41:38;21.60;99.90
324;DHT22;149;51.094;17.002;2022-09-03T13:44:23;21.80;99.90
324;DHT22;149;51.094;17.002;2022-09-03T13:47:11;22.10;99.90
324;DHT22;149;51.094;17.002;2022-09-03T13:49:54;21.90;99.90
324;DHT22;149;51.094;17.002;2022-09-03T13:53:00;21.40;99.90
324;DHT22;149;51.094;17.002;2022-09-03T13:55:40;21.30;99.90
324;DHT22;149;51.094;17.002;2022-09-03T13:58:29;21.20;99.90
324;DHT22;149;51.094;17.002;2022-09-03T14:06:41;21.50;99.90
324;DHT22;149;51.094;17.002;2022-09-03T14:09:22;21.60;99.90
324;DHT22;149;51.094;17.002;2022-09-03T14:15:00;21.50;99.90
324;DHT22;149;51.094;17.002;2022-09-03T14:20:28;21.40;99.90
324;DHT22;149;51.094;17.002;2022-09-03T14:23:24;21.30;99.90
324;DHT22;149;51.094;17.002;2022-09-03T14:25:56;21.20;99.90
324;DHT22;149;51.094;17.002;2022-09-03T14:28:36;21.00;99.90
324;DHT22;149;51.094;17.002;2022-09-03T14:31:27;20.90;99.90
324;DHT22;149;51.094;17.002;2022-09-03T14:36:39;20.80;99.90
324;DHT22;149;51.094;17.002;2022-09-03T14:39:22;20.70;99.90
324;DHT22;149;51.094;17.002;2022-09-03T14:50:32;20.60;99.90
324;DHT22;149;51.094;17.002;2022-09-03T14:53:07;20.60;99.90
324;DHT22;149;51.094;17.002;2022-09-03T14:56:16;20.50;99.90
324;DHT22;149;51.094;17.002;2022-09-03T14:59:02;20.40;99.90
324;DHT22;149;51.094;17.002;2022-09-03T15:01:34;20.60;99.90
324;DHT22;149;51.094;17.002;2022-09-03T15:07:22;20.70;99.90
324;DHT22;149;51.094;17.002;2022-09-03T15:12:51;20.50;99.90
324;DHT22;149;51.094;17.002;2022-09-03T15:15:21;20.60;99.90
324;DHT22;149;51.094;17.002;2022-09-03T15:20:48;20.70;99.90
324;DHT22;149;51.094;17.002;2022-09-03T15:23:52;20.70;99.90
324;DHT22;149;51.094;17.002;2022-09-03T15:32:02;20.40;99.90
324;DHT22;149;51.094;17.002;2022-09-03T15:34:53;20.40;99.90
324;DHT22;149;51.094;17.002;2022-09-03T15:37:29;20.40;99.90
324;DHT22;149;51.094;17.002;2022-09-03T15:40:22;20.30;99.90
324;DHT22;149;51.094;17.002;2022-09-03T15:42:56;20.30;99.90
324;DHT22;149;51.094;17.002;2022-09-03T15:45:39;20.30;99.90
324;DHT22;149;51.094;17.002;2022-09-03T15:48:49;20.20;99.90
324;DHT22;149;51.094;17.002;2022-09-03T15:54:29;20.10;99.90
324;DHT22;149;51.094;17.002;2022-09-03T15:57:08;20.00;99.90
324;DHT22;149;51.094;17.002;2022-09-03T16:02:30;19.80;99.90
324;DHT22;149;51.094;17.002;2022-09-03T16:05:19;19.70;99.90
324;DHT22;149;51.094;17.002;2022-09-03T16:07:56;19.60;99.90
324;DHT22;149;51.094;17.002;2022-09-03T16:10:36;19.60;99.90
324;DHT22;149;51.094;17.002;2022-09-03T16:16:03;19.40;99.90
324;DHT22;149;51.094;17.002;2022-09-03T16:21:55;19.40;99.90
324;DHT22;149;51.094;17.002;2022-09-03T16:27:21;19.30;99.90
324;DHT22;149;51.094;17.002;2022-09-03T16:30:11;19.30;99.90
324;DHT22;149;51.094;17.002;2022-09-03T16:33:12;19.20;99.90
324;DHT22;149;51.094;17.002;2022-09-03T16:38:59;19.20;99.90
324;DHT22;149;51.094;17.002;2022-09-03T16:45:05;19.00;99.90
324;DHT22;149;51.094;17.002;2022-09-03T16:53:14;18.90;99.90
324;DHT22;149;51.094;17.002;2022-09-03T16:56:08;18.70;99.90
324;DHT22;149;51.094;17.002;2022-09-03T16:59:10;18.80;99.90
324;DHT22;149;51.094;17.002;2022-09-03T17:11:31;18.50;99.90
324;DHT22;149;51.094;17.002;2022-09-03T17:14:18;18.30;99.90
324;DHT22;149;51.094;17.002;2022-09-03T17:19:58;18.20;99.90
324;DHT22;149;51.094;17.002;2022-09-03T17:25:17;18.00;99.90
324;DHT22;149;51.094;17.002;2022-09-03T17:28:05;18.00;99.90
324;DHT22;149;51.094;17.002;2022-09-03T17:36:27;17.90;99.90
324;DHT22;149;51.094;17.002;2022-09-03T17:41:57;17.70;99.90
324;DHT22;149;51.094;17.002;2022-09-03T17:50:05;17.60;99.90
324;DHT22;149;51.094;17.002;2022-09-03T17:52:43;17.50;99.90
324;DHT22;149;51.094;17.002;2022-09-03T18:03:54;17.30;99.90
324;DHT22;149;51.094;17.002;2022-09-03T18:12:24;17.30;99.90
324;DHT22;149;51.094;17.002;2022-09-03T18:14:53;17.20;99.90
324;DHT22;149;51.094;17.002;2022-09-03T18:17:34;17.30;99.90
324;DHT22;149;51.094;17.002;2022-09-03T18:20:07;17.30;99.90
324;DHT22;149;51.094;17.002;2022-09-03T18:26:08;17.10;99.90
324;DHT22;149;51.094;17.002;2022-09-03T18:29:02;17.10;99.90
324;DHT22;149;51.094;17.002;2022-09-03T18:31:48;17.00;99.90
324;DHT22;149;51.094;17.002;2022-09-03T18:34:35;16.90;99.90
324;DHT22;149;51.094;17.002;2022-09-03T18:37:23;16.90;99.90
324;DHT22;149;51.094;17.002;2022-09-03T18:40:13;16.60;99.90
324;DHT22;149;51.094;17.002;2022-09-03T18:43:43;16.80;99.90
324;DHT22;149;51.094;17.002;2022-09-03T18:46:52;16.90;99.90
324;DHT22;149;51.094;17.002;2022-09-03T18:50:21;16.90;99.90
324;DHT22;149;51.094;17.002;2022-09-03T18:53:30;16.80;99.90
324;DHT22;149;51.094;17.002;2022-09-03T18:56:29;16.80;99.90
324;DHT22;149;51.094;17.002;2022-09-03T18:59:38;16.70;99.90
324;DHT22;149;51.094;17.002;2022-09-03T19:05:53;16.70;99.90
324;DHT22;149;51.094;17.002;2022-09-03T19:08:56;16.60;99.90
324;DHT22;149;51.094;17.002;2022-09-03T19:11:58;16.50;99.90
324;DHT22;149;51.094;17.002;2022-09-03T19:15:05;16.40;99.90
324;DHT22;149;51.094;17.002;2022-09-03T19:20:53;16.30;99.90
324;DHT22;149;51.094;17.002;2022-09-03T19:23:39;16.40;99.90
324;DHT22;149;51.094;17.002;2022-09-03T19:26:43;16.40;99.90
324;DHT22;149;51.094;17.002;2022-09-03T19:30:09;16.40;99.90
324;DHT22;149;51.094;17.002;2022-09-03T19:33:15;16.30;99.90
324;DHT22;149;51.094;17.002;2022-09-03T19:39:22;16.20;99.90
324;DHT22;149;51.094;17.002;2022-09-03T19:48:31;16.30;99.90
324;DHT22;149;51.094;17.002;2022-09-03T19:51:33;16.20;99.90
324;DHT22;149;51.094;17.002;2022-09-03T19:54:22;16.20;99.90
324;DHT22;149;51.094;17.002;2022-09-03T19:57:12;16.10;99.90
324;DHT22;149;51.094;17.002;2022-09-03T19:59:59;16.10;99.90
324;DHT22;149;51.094;17.002;2022-09-03T20:03:00;15.80;99.90
324;DHT22;149;51.094;17.002;2022-09-03T20:05:46;15.70;99.90
324;DHT22;149;51.094;17.002;2022-09-03T20:08:36;15.80;99.90
324;DHT22;149;51.094;17.002;2022-09-03T20:11:23;15.80;99.90
324;DHT22;149;51.094;17.002;2022-09-03T20:13:53;15.80;99.90
324;DHT22;149;51.094;17.002;2022-09-03T20:17:06;15.70;99.90
324;DHT22;149;51.094;17.002;2022-09-03T20:22:45;15.60;99.90
324;DHT22;149;51.094;17.002;2022-09-03T20:25:41;15.60;99.90
324;DHT22;149;51.094;17.002;2022-09-03T20:34:39;15.60;99.90
324;DHT22;149;51.094;17.002;2022-09-03T20:37:10;15.50;99.90
324;DHT22;149;51.094;17.002;2022-09-03T20:40:03;15.50;99.90
324;DHT22;149;51.094;17.002;2022-09-03T20:48:14;15.20;99.90
324;DHT22;149;51.094;17.002;2022-09-03T20:50:56;15.30;99.90
324;DHT22;149;51.094;17.002;2022-09-03T20:59:12;15.00;99.90
324;DHT22;149;51.094;17.002;2022-09-03T21:01:50;15.00;99.90
324;DHT22;149;51.094;17.002;2022-09-03T21:04:34;15.10;99.90
324;DHT22;149;51.094;17.002;2022-09-03T21:15:15;14.80;99.90
324;DHT22;149;51.094;17.002;2022-09-03T21:17:53;15.00;99.90
324;DHT22;149;51.094;17.002;2022-09-03T21:20:40;14.80;99.90
324;DHT22;149;51.094;17.002;2022-09-03T21:25:47;15.00;99.90
324;DHT22;149;51.094;17.002;2022-09-03T21:28:58;14.70;99.90
324;DHT22;149;51.094;17.002;2022-09-03T21:31:34;14.60;99.90
324;DHT22;149;51.094;17.002;2022-09-03T21:34:18;14.50;99.90
324;DHT22;149;51.094;17.002;2022-09-03T21:36:47;14.70;99.90
324;DHT22;149;51.094;17.002;2022-09-03T21:39:51;14.60;99.90
324;DHT22;149;51.094;17.002;2022-09-03T21:42:34;14.70;99.90
324;DHT22;149;51.094;17.002;2022-09-03T21:45:07;14.80;99.90
324;DHT22;149;51.094;17.002;2022-09-03T21:47:44;14.70;99.90
324;DHT22;149;51.094;17.002;2022-09-03T21:50:20;14.70;99.90
324;DHT22;149;51.094;17.002;2022-09-03T21:52:59;14.60;99.90
324;DHT22;149;51.094;17.002;2022-09-03T21:55:45;14.70;99.90
324;DHT22;149;51.094;17.002;2022-09-03T21:58:40;14.60;99.90
324;DHT22;149;51.094;17.002;2022-09-03T22:01:21;14.50;99.90
324;DHT22;149;51.094;17.002;2022-09-03T22:03:51;14.60;99.90
324;DHT22;149;51.094;17.002;2022-09-03T22:06:30;14.70;99.90
324;DHT22;149;51.094;17.002;2022-09-03T22:10:06;14.80;99.90
324;DHT22;149;51.094;17.002;2022-09-03T22:14:44;14.80;99.90
324;DHT22;149;51.094;17.002;2022-09-03T22:17:40;14.70;99.90
324;DHT22;149;51.094;17.002;2022-09-03T22:20:15;14.50;99.90
324;DHT22;149;51.094;17.002;2022-09-03T22:22:59;14.30;99.90
324;DHT22;149;51.094;17.002;2022-09-03T22:25:36;14.30;99.90
324;DHT22;149;51.094;17.002;2022-09-03T22:28:31;14.20;99.90